Terminal Aerodrome Forecast
Issued by NWS

Home | Current Version | Previous Version | Text Only | Print | Product List | Glossary On
Versions: 1 2 3 4 5 6 7 8 9 10 11 12 13 14 15 16
612
FTUS41 KBGM 281133
TAFRME
TAF
KRME 281133Z 2812/2912 14008KT P6SM SCT050 BKN120
     FM281800 21012G22KT P6SM BKN050 PROB30 2821/2824 4SM TSRA BR
      OVC025CB
     FM290100 20008KT P6SM SCT040 BKN070
     FM290700 34008KT P6SM SCT015=

USA.gov is the U.S. government's official web portal to all federal, state and local government web resources and services.